sensor_id;sensor_type;location;lat;lon;timestamp;P1;durP1;ratioP1;P2;durP2;ratioP2
23578;SDS011;11967;50.852;4.400;2022-11-20T00:01:46;49.55;;;27.38;;
23578;SDS011;11967;50.852;4.400;2022-11-20T00:04:12;45.85;;;27.65;;
23578;SDS011;11967;50.852;4.400;2022-11-20T00:06:37;43.50;;;26.08;;
23578;SDS011;11967;50.852;4.400;2022-11-20T00:09:03;48.38;;;28.05;;
23578;SDS011;11967;50.852;4.400;2022-11-20T00:11:30;50.20;;;28.15;;
23578;SDS011;11967;50.852;4.400;2022-11-20T00:13:57;48.95;;;28.70;;
23578;SDS011;11967;50.852;4.400;2022-11-20T00:16:24;52.05;;;29.27;;
23578;SDS011;11967;50.852;4.400;2022-11-20T00:18:52;48.22;;;28.55;;
23578;SDS011;11967;50.852;4.400;2022-11-20T00:21:19;47.67;;;28.60;;
23578;SDS011;11967;50.852;4.400;2022-11-20T00:23:46;44.10;;;28.50;;
23578;SDS011;11967;50.852;4.400;2022-11-20T00:26:13;49.20;;;29.48;;
23578;SDS011;11967;50.852;4.400;2022-11-20T00:28:40;48.05;;;29.02;;
23578;SDS011;11967;50.852;4.400;2022-11-20T00:31:07;47.65;;;27.55;;
23578;SDS011;11967;50.852;4.400;2022-11-20T00:33:37;49.78;;;27.67;;
23578;SDS011;11967;50.852;4.400;2022-11-20T00:36:04;52.45;;;28.15;;
23578;SDS011;11967;50.852;4.400;2022-11-20T00:38:35;44.45;;;27.38;;
23578;SDS011;11967;50.852;4.400;2022-11-20T00:41:02;46.78;;;27.25;;
23578;SDS011;11967;50.852;4.400;2022-11-20T00:43:29;44.47;;;25.67;;
23578;SDS011;11967;50.852;4.400;2022-11-20T00:46:05;41.80;;;25.90;;
23578;SDS011;11967;50.852;4.400;2022-11-20T00:48:33;46.40;;;25.75;;
23578;SDS011;11967;50.852;4.400;2022-11-20T00:50:59;42.70;;;25.95;;
23578;SDS011;11967;50.852;4.400;2022-11-20T00:53:25;44.65;;;26.38;;
23578;SDS011;11967;50.852;4.400;2022-11-20T00:55:52;42.97;;;26.00;;
23578;SDS011;11967;50.852;4.400;2022-11-20T00:58:22;41.97;;;24.77;;
23578;SDS011;11967;50.852;4.400;2022-11-20T01:00:48;40.03;;;24.90;;
23578;SDS011;11967;50.852;4.400;2022-11-20T01:03:15;41.40;;;25.05;;
23578;SDS011;11967;50.852;4.400;2022-11-20T01:05:43;43.95;;;26.45;;
23578;SDS011;11967;50.852;4.400;2022-11-20T01:08:08;47.47;;;26.05;;
23578;SDS011;11967;50.852;4.400;2022-11-20T01:10:34;42.88;;;26.85;;
23578;SDS011;11967;50.852;4.400;2022-11-20T01:13:00;49.72;;;27.58;;
23578;SDS011;11967;50.852;4.400;2022-11-20T01:18:31;48.65;;;27.20;;
23578;SDS011;11967;50.852;4.400;2022-11-20T01:21:00;46.22;;;26.45;;
23578;SDS011;11967;50.852;4.400;2022-11-20T01:23:29;47.33;;;27.05;;
23578;SDS011;11967;50.852;4.400;2022-11-20T01:25:56;47.70;;;27.55;;
23578;SDS011;11967;50.852;4.400;2022-11-20T01:28:23;49.47;;;27.20;;
23578;SDS011;11967;50.852;4.400;2022-11-20T01:30:49;44.35;;;27.50;;
23578;SDS011;11967;50.852;4.400;2022-11-20T01:33:15;48.10;;;28.17;;
23578;SDS011;11967;50.852;4.400;2022-11-20T01:35:40;46.65;;;27.70;;
23578;SDS011;11967;50.852;4.400;2022-11-20T01:38:06;46.92;;;28.10;;
23578;SDS011;11967;50.852;4.400;2022-11-20T01:40:31;46.40;;;27.23;;
23578;SDS011;11967;50.852;4.400;2022-11-20T01:43:39;45.10;;;27.58;;
23578;SDS011;11967;50.852;4.400;2022-11-20T01:48:53;50.17;;;28.15;;
23578;SDS011;11967;50.852;4.400;2022-11-20T01:52:12;47.83;;;28.45;;
23578;SDS011;11967;50.852;4.400;2022-11-20T01:54:40;49.50;;;28.77;;
23578;SDS011;11967;50.852;4.400;2022-11-20T01:57:12;44.90;;;27.25;;
23578;SDS011;11967;50.852;4.400;2022-11-20T01:59:40;49.00;;;27.80;;
23578;SDS011;11967;50.852;4.400;2022-11-20T02:02:12;49.33;;;29.27;;
23578;SDS011;11967;50.852;4.400;2022-11-20T02:04:39;46.75;;;28.83;;
23578;SDS011;11967;50.852;4.400;2022-11-20T02:07:06;51.95;;;28.67;;
23578;SDS011;11967;50.852;4.400;2022-11-20T02:09:32;48.85;;;28.48;;
23578;SDS011;11967;50.852;4.400;2022-11-20T02:11:57;50.15;;;28.80;;
23578;SDS011;11967;50.852;4.400;2022-11-20T02:14:24;52.83;;;28.92;;
23578;SDS011;11967;50.852;4.400;2022-11-20T02:16:51;53.63;;;30.48;;
23578;SDS011;11967;50.852;4.400;2022-11-20T02:19:24;51.58;;;30.13;;
23578;SDS011;11967;50.852;4.400;2022-11-20T02:22:07;59.17;;;30.08;;
23578;SDS011;11967;50.852;4.400;2022-11-20T02:24:41;55.92;;;30.50;;
23578;SDS011;11967;50.852;4.400;2022-11-20T02:27:13;55.47;;;30.63;;
23578;SDS011;11967;50.852;4.400;2022-11-20T02:29:46;62.50;;;31.17;;
23578;SDS011;11967;50.852;4.400;2022-11-20T02:32:20;59.40;;;31.90;;
23578;SDS011;11967;50.852;4.400;2022-11-20T05:43:23;72.25;;;33.03;;
23578;SDS011;11967;50.852;4.400;2022-11-20T05:45:55;69.03;;;32.35;;
23578;SDS011;11967;50.852;4.400;2022-11-20T05:51:43;71.25;;;32.65;;
23578;SDS011;11967;50.852;4.400;2022-11-20T05:57:31;66.65;;;32.83;;
23578;SDS011;11967;50.852;4.400;2022-11-20T05:59:56;71.63;;;34.35;;
23578;SDS011;11967;50.852;4.400;2022-11-20T06:02:22;71.15;;;33.78;;
23578;SDS011;11967;50.852;4.400;2022-11-20T06:04:47;74.38;;;34.38;;
23578;SDS011;11967;50.852;4.400;2022-11-20T06:07:13;75.28;;;34.22;;
23578;SDS011;11967;50.852;4.400;2022-11-20T06:09:39;61.20;;;30.55;;
23578;SDS011;11967;50.852;4.400;2022-11-20T06:12:04;60.80;;;29.92;;
23578;SDS011;11967;50.852;4.400;2022-11-20T06:14:30;66.22;;;29.85;;
23578;SDS011;11967;50.852;4.400;2022-11-20T06:16:56;66.43;;;30.98;;
23578;SDS011;11967;50.852;4.400;2022-11-20T06:19:21;66.25;;;30.75;;
23578;SDS011;11967;50.852;4.400;2022-11-20T06:21:47;71.45;;;32.92;;
23578;SDS011;11967;50.852;4.400;2022-11-20T06:24:14;68.03;;;31.40;;
23578;SDS011;11967;50.852;4.400;2022-11-20T06:26:40;70.85;;;32.20;;
23578;SDS011;11967;50.852;4.400;2022-11-20T06:29:06;72.22;;;31.98;;
23578;SDS011;11967;50.852;4.400;2022-11-20T06:31:32;67.82;;;30.98;;
23578;SDS011;11967;50.852;4.400;2022-11-20T06:33:59;65.95;;;31.02;;
23578;SDS011;11967;50.852;4.400;2022-11-20T06:36:26;77.18;;;32.92;;
23578;SDS011;11967;50.852;4.400;2022-11-20T06:38:51;73.63;;;33.33;;
23578;SDS011;11967;50.852;4.400;2022-11-20T06:41:19;73.28;;;33.50;;
23578;SDS011;11967;50.852;4.400;2022-11-20T06:43:46;71.95;;;31.98;;
23578;SDS011;11967;50.852;4.400;2022-11-20T06:46:12;71.72;;;32.63;;
23578;SDS011;11967;50.852;4.400;2022-11-20T06:48:39;71.45;;;30.80;;
23578;SDS011;11967;50.852;4.400;2022-11-20T06:51:06;72.07;;;32.35;;
23578;SDS011;11967;50.852;4.400;2022-11-20T06:53:32;72.43;;;32.78;;
23578;SDS011;11967;50.852;4.400;2022-11-20T06:55:59;68.85;;;31.35;;
23578;SDS011;11967;50.852;4.400;2022-11-20T06:58:29;72.07;;;31.67;;
23578;SDS011;11967;50.852;4.400;2022-11-20T07:00:59;73.35;;;31.73;;
23578;SDS011;11967;50.852;4.400;2022-11-20T07:03:25;70.55;;;31.42;;
23578;SDS011;11967;50.852;4.400;2022-11-20T07:05:51;75.70;;;33.15;;
23578;SDS011;11967;50.852;4.400;2022-11-20T07:08:18;72.72;;;32.20;;
23578;SDS011;11967;50.852;4.400;2022-11-20T07:10:44;70.65;;;32.17;;
23578;SDS011;11967;50.852;4.400;2022-11-20T07:13:10;71.00;;;32.20;;
23578;SDS011;11967;50.852;4.400;2022-11-20T07:15:35;71.82;;;30.15;;
23578;SDS011;11967;50.852;4.400;2022-11-20T07:18:01;70.88;;;31.98;;
23578;SDS011;11967;50.852;4.400;2022-11-20T07:20:27;73.93;;;31.83;;
23578;SDS011;11967;50.852;4.400;2022-11-20T07:22:56;70.53;;;32.03;;
23578;SDS011;11967;50.852;4.400;2022-11-20T07:25:22;64.63;;;29.95;;
23578;SDS011;11967;50.852;4.400;2022-11-20T07:27:52;64.93;;;30.40;;
23578;SDS011;11967;50.852;4.400;2022-11-20T07:30:18;70.05;;;30.95;;
23578;SDS011;11967;50.852;4.400;2022-11-20T07:32:47;68.22;;;31.65;;
23578;SDS011;11967;50.852;4.400;2022-11-20T07:35:16;70.90;;;31.02;;
23578;SDS011;11967;50.852;4.400;2022-11-20T07:37:41;69.00;;;31.67;;
23578;SDS011;11967;50.852;4.400;2022-11-20T07:40:07;67.53;;;30.58;;
23578;SDS011;11967;50.852;4.400;2022-11-20T07:42:33;70.43;;;30.60;;
23578;SDS011;11967;50.852;4.400;2022-11-20T07:44:59;73.03;;;31.50;;
23578;SDS011;11967;50.852;4.400;2022-11-20T07:47:24;68.68;;;30.80;;
23578;SDS011;11967;50.852;4.400;2022-11-20T07:49:50;66.47;;;32.40;;
23578;SDS011;11967;50.852;4.400;2022-11-20T07:52:15;76.30;;;34.10;;
23578;SDS011;11967;50.852;4.400;2022-11-20T07:54:41;74.60;;;33.08;;
23578;SDS011;11967;50.852;4.400;2022-11-20T07:57:06;77.03;;;32.97;;
23578;SDS011;11967;50.852;4.400;2022-11-20T07:59:32;78.90;;;33.30;;
23578;SDS011;11967;50.852;4.400;2022-11-20T08:01:58;80.85;;;33.45;;
23578;SDS011;11967;50.852;4.400;2022-11-20T08:04:23;76.28;;;32.60;;
23578;SDS011;11967;50.852;4.400;2022-11-20T08:06:49;80.43;;;32.85;;
23578;SDS011;11967;50.852;4.400;2022-11-20T08:09:16;77.90;;;32.78;;
23578;SDS011;11967;50.852;4.400;2022-11-20T08:11:42;77.63;;;32.50;;
23578;SDS011;11967;50.852;4.400;2022-11-20T08:14:26;76.05;;;31.52;;
23578;SDS011;11967;50.852;4.400;2022-11-20T08:16:52;76.53;;;32.55;;
23578;SDS011;11967;50.852;4.400;2022-11-20T08:19:18;76.68;;;31.45;;
23578;SDS011;11967;50.852;4.400;2022-11-20T08:21:44;74.55;;;32.17;;
23578;SDS011;11967;50.852;4.400;2022-11-20T08:24:10;78.25;;;32.08;;
23578;SDS011;11967;50.852;4.400;2022-11-20T08:26:37;77.80;;;32.53;;
23578;SDS011;11967;50.852;4.400;2022-11-20T08:29:04;80.88;;;32.53;;
23578;SDS011;11967;50.852;4.400;2022-11-20T08:31:30;76.18;;;31.63;;
23578;SDS011;11967;50.852;4.400;2022-11-20T08:33:55;77.95;;;32.38;;
23578;SDS011;11967;50.852;4.400;2022-11-20T08:36:22;77.30;;;31.52;;
23578;SDS011;11967;50.852;4.400;2022-11-20T08:38:52;73.85;;;31.13;;
23578;SDS011;11967;50.852;4.400;2022-11-20T08:41:19;75.32;;;31.70;;
23578;SDS011;11967;50.852;4.400;2022-11-20T08:43:48;76.00;;;31.50;;
23578;SDS011;11967;50.852;4.400;2022-11-20T08:46:15;74.25;;;30.45;;
23578;SDS011;11967;50.852;4.400;2022-11-20T08:48:40;84.15;;;31.48;;
23578;SDS011;11967;50.852;4.400;2022-11-20T08:51:06;75.20;;;30.08;;
23578;SDS011;11967;50.852;4.400;2022-11-20T08:53:32;67.72;;;28.90;;
23578;SDS011;11967;50.852;4.400;2022-11-20T08:55:57;67.80;;;28.90;;
23578;SDS011;11967;50.852;4.400;2022-11-20T08:58:23;72.95;;;28.27;;
23578;SDS011;11967;50.852;4.400;2022-11-20T09:00:49;74.95;;;30.23;;
23578;SDS011;11967;50.852;4.400;2022-11-20T09:03:15;68.95;;;28.23;;
23578;SDS011;11967;50.852;4.400;2022-11-20T09:05:43;67.45;;;28.58;;
23578;SDS011;11967;50.852;4.400;2022-11-20T09:08:09;65.07;;;26.10;;
23578;SDS011;11967;50.852;4.400;2022-11-20T09:10:34;64.40;;;26.77;;
23578;SDS011;11967;50.852;4.400;2022-11-20T09:13:01;59.83;;;26.02;;
23578;SDS011;11967;50.852;4.400;2022-11-20T09:15:27;53.38;;;23.92;;
23578;SDS011;11967;50.852;4.400;2022-11-20T09:17:54;58.08;;;25.70;;
23578;SDS011;11967;50.852;4.400;2022-11-20T09:20:21;56.95;;;25.58;;
23578;SDS011;11967;50.852;4.400;2022-11-20T09:22:47;56.13;;;25.42;;
23578;SDS011;11967;50.852;4.400;2022-11-20T09:25:13;51.45;;;20.88;;
23578;SDS011;11967;50.852;4.400;2022-11-20T09:27:39;53.90;;;24.20;;
23578;SDS011;11967;50.852;4.400;2022-11-20T09:30:06;54.00;;;20.88;;
23578;SDS011;11967;50.852;4.400;2022-11-20T09:32:32;50.67;;;23.23;;
23578;SDS011;11967;50.852;4.400;2022-11-20T09:34:58;41.55;;;17.25;;
23578;SDS011;11967;50.852;4.400;2022-11-20T09:37:24;44.80;;;20.20;;
23578;SDS011;11967;50.852;4.400;2022-11-20T09:39:49;45.55;;;20.23;;
23578;SDS011;11967;50.852;4.400;2022-11-20T09:45:18;39.95;;;19.48;;
23578;SDS011;11967;50.852;4.400;2022-11-20T09:48:15;41.92;;;19.67;;
23578;SDS011;11967;50.852;4.400;2022-11-20T09:53:42;40.33;;;18.90;;
23578;SDS011;11967;50.852;4.400;2022-11-20T09:56:30;41.03;;;19.73;;
23578;SDS011;11967;50.852;4.400;2022-11-20T09:58:59;37.08;;;18.70;;
23578;SDS011;11967;50.852;4.400;2022-11-20T10:01:31;34.72;;;17.05;;
23578;SDS011;11967;50.852;4.400;2022-11-20T10:06:43;32.65;;;16.08;;
23578;SDS011;11967;50.852;4.400;2022-11-20T10:09:30;34.25;;;15.85;;
23578;SDS011;11967;50.852;4.400;2022-11-20T10:12:09;31.75;;;15.85;;
23578;SDS011;11967;50.852;4.400;2022-11-20T10:26:03;20.75;;;11.15;;
23578;SDS011;11967;50.852;4.400;2022-11-20T10:31:12;23.15;;;11.48;;
23578;SDS011;11967;50.852;4.400;2022-11-20T10:33:49;25.05;;;10.00;;
23578;SDS011;11967;50.852;4.400;2022-11-20T10:36:26;19.15;;;10.48;;
23578;SDS011;11967;50.852;4.400;2022-11-20T10:41:25;19.45;;;9.45;;
23578;SDS011;11967;50.852;4.400;2022-11-20T10:47:04;18.10;;;8.48;;
23578;SDS011;11967;50.852;4.400;2022-11-20T10:49:31;14.85;;;7.57;;
23578;SDS011;11967;50.852;4.400;2022-11-20T10:52:08;16.00;;;7.40;;
23578;SDS011;11967;50.852;4.400;2022-11-20T10:57:25;12.45;;;6.63;;
23578;SDS011;11967;50.852;4.400;2022-11-20T11:02:41;18.67;;;6.97;;
23578;SDS011;11967;50.852;4.400;2022-11-20T11:07:49;16.27;;;5.40;;
23578;SDS011;11967;50.852;4.400;2022-11-20T11:10:18;11.05;;;5.50;;
23578;SDS011;11967;50.852;4.400;2022-11-20T11:12:48;13.82;;;5.57;;
23578;SDS011;11967;50.852;4.400;2022-11-20T11:15:24;11.98;;;4.82;;
23578;SDS011;11967;50.852;4.400;2022-11-20T11:17:50;13.10;;;5.35;;
23578;SDS011;11967;50.852;4.400;2022-11-20T11:20:17;14.77;;;4.70;;
23578;SDS011;11967;50.852;4.400;2022-11-20T11:22:51;10.10;;;4.22;;
23578;SDS011;11967;50.852;4.400;2022-11-20T11:27:53;9.88;;;3.80;;
23578;SDS011;11967;50.852;4.400;2022-11-20T11:30:21;11.05;;;4.32;;
23578;SDS011;11967;50.852;4.400;2022-11-20T11:32:48;7.03;;;4.03;;
23578;SDS011;11967;50.852;4.400;2022-11-20T11:35:22;10.75;;;3.58;;
23578;SDS011;11967;50.852;4.400;2022-11-20T11:37:53;10.20;;;3.78;;
23578;SDS011;11967;50.852;4.400;2022-11-20T11:40:27;11.50;;;3.85;;
23578;SDS011;11967;50.852;4.400;2022-11-20T11:42:59;12.63;;;3.90;;
23578;SDS011;11967;50.852;4.400;2022-11-20T11:45:29;11.98;;;4.65;;
23578;SDS011;11967;50.852;4.400;2022-11-20T11:47:58;10.90;;;3.65;;
23578;SDS011;11967;50.852;4.400;2022-11-20T11:50:28;11.50;;;4.05;;
23578;SDS011;11967;50.852;4.400;2022-11-20T11:53:12;7.90;;;3.20;;
23578;SDS011;11967;50.852;4.400;2022-11-20T11:55:58;12.75;;;4.05;;
23578;SDS011;11967;50.852;4.400;2022-11-20T11:58:48;8.88;;;3.72;;
23578;SDS011;11967;50.852;4.400;2022-11-20T12:01:33;10.35;;;3.75;;
23578;SDS011;11967;50.852;4.400;2022-11-20T12:07:03;9.80;;;3.33;;
23578;SDS011;11967;50.852;4.400;2022-11-20T12:09:42;7.97;;;3.45;;
23578;SDS011;11967;50.852;4.400;2022-11-20T12:12:17;8.05;;;3.20;;
23578;SDS011;11967;50.852;4.400;2022-11-20T12:14:47;8.73;;;3.20;;
23578;SDS011;11967;50.852;4.400;2022-11-20T12:17:16;10.35;;;3.35;;
23578;SDS011;11967;50.852;4.400;2022-11-20T12:19:42;10.38;;;3.30;;
23578;SDS011;11967;50.852;4.400;2022-11-20T12:30:12;7.15;;;3.00;;
23578;SDS011;11967;50.852;4.400;2022-11-20T12:35:52;10.02;;;3.20;;
23578;SDS011;11967;50.852;4.400;2022-11-20T12:44:45;9.10;;;3.55;;
23578;SDS011;11967;50.852;4.400;2022-11-20T12:56:21;10.88;;;3.85;;
23578;SDS011;11967;50.852;4.400;2022-11-20T13:07:00;10.70;;;3.97;;
23578;SDS011;11967;50.852;4.400;2022-11-20T13:09:32;7.77;;;4.00;;
23578;SDS011;11967;50.852;4.400;2022-11-20T13:12:08;10.80;;;3.88;;
23578;SDS011;11967;50.852;4.400;2022-11-20T13:20:11;5.95;;;3.13;;
23578;SDS011;11967;50.852;4.400;2022-11-20T13:25:09;8.55;;;3.72;;
23578;SDS011;11967;50.852;4.400;2022-11-20T13:27:35;8.88;;;4.00;;
23578;SDS011;11967;50.852;4.400;2022-11-20T13:30:12;9.38;;;3.80;;
23578;SDS011;11967;50.852;4.400;2022-11-20T13:35:26;7.00;;;3.35;;
23578;SDS011;11967;50.852;4.400;2022-11-20T13:37:59;8.57;;;3.58;;
23578;SDS011;11967;50.852;4.400;2022-11-20T13:40:37;5.47;;;3.30;;
23578;SDS011;11967;50.852;4.400;2022-11-20T13:43:54;7.32;;;3.40;;
23578;SDS011;11967;50.852;4.400;2022-11-20T13:46:44;7.78;;;3.75;;
23578;SDS011;11967;50.852;4.400;2022-11-20T13:49:25;6.65;;;3.17;;
23578;SDS011;11967;50.852;4.400;2022-11-20T13:55:10;5.72;;;2.80;;
23578;SDS011;11967;50.852;4.400;2022-11-20T13:57:48;5.47;;;3.00;;
23578;SDS011;11967;50.852;4.400;2022-11-20T14:00:19;4.90;;;2.50;;
23578;SDS011;11967;50.852;4.400;2022-11-20T14:02:58;5.78;;;2.80;;
23578;SDS011;11967;50.852;4.400;2022-11-20T14:05:31;4.47;;;2.40;;
23578;SDS011;11967;50.852;4.400;2022-11-20T14:08:06;4.40;;;2.55;;
23578;SDS011;11967;50.852;4.400;2022-11-20T14:10:36;6.53;;;2.80;;
23578;SDS011;11967;50.852;4.400;2022-11-20T14:13:37;6.40;;;2.75;;
23578;SDS011;11967;50.852;4.400;2022-11-20T14:15:56;5.85;;;2.92;;
23578;SDS011;11967;50.852;4.400;2022-11-20T14:18:25;5.75;;;2.40;;
23578;SDS011;11967;50.852;4.400;2022-11-20T14:20:52;4.03;;;2.38;;
23578;SDS011;11967;50.852;4.400;2022-11-20T14:23:28;3.03;;;1.98;;
23578;SDS011;11967;50.852;4.400;2022-11-20T14:25:54;5.32;;;2.40;;
23578;SDS011;11967;50.852;4.400;2022-11-20T14:28:27;4.82;;;2.17;;
23578;SDS011;11967;50.852;4.400;2022-11-20T14:30:54;4.18;;;2.80;;
23578;SDS011;11967;50.852;4.400;2022-11-20T14:33:22;5.15;;;2.70;;
23578;SDS011;11967;50.852;4.400;2022-11-20T14:35:51;3.85;;;2.38;;
23578;SDS011;11967;50.852;4.400;2022-11-20T14:38:20;4.15;;;2.50;;
23578;SDS011;11967;50.852;4.400;2022-11-20T14:40:50;3.20;;;2.40;;
23578;SDS011;11967;50.852;4.400;2022-11-20T14:43:23;5.15;;;3.00;;
23578;SDS011;11967;50.852;4.400;2022-11-20T14:45:55;5.18;;;2.72;;
23578;SDS011;11967;50.852;4.400;2022-11-20T14:48:30;5.40;;;3.10;;
23578;SDS011;11967;50.852;4.400;2022-11-20T14:50:59;5.78;;;2.90;;
23578;SDS011;11967;50.852;4.400;2022-11-20T14:53:24;5.38;;;3.00;;
23578;SDS011;11967;50.852;4.400;2022-11-20T14:55:57;4.60;;;3.20;;
23578;SDS011;11967;50.852;4.400;2022-11-20T14:58:32;5.82;;;3.20;;
23578;SDS011;11967;50.852;4.400;2022-11-20T15:01:04;5.53;;;2.90;;
23578;SDS011;11967;50.852;4.400;2022-11-20T15:03:32;5.07;;;3.00;;
23578;SDS011;11967;50.852;4.400;2022-11-20T15:06:05;4.40;;;3.05;;
23578;SDS011;11967;50.852;4.400;2022-11-20T15:08:31;5.53;;;2.88;;
23578;SDS011;11967;50.852;4.400;2022-11-20T15:10:57;8.38;;;3.00;;
23578;SDS011;11967;50.852;4.400;2022-11-20T15:13:25;4.53;;;3.08;;
23578;SDS011;11967;50.852;4.400;2022-11-20T15:15:52;6.82;;;2.88;;
23578;SDS011;11967;50.852;4.400;2022-11-20T15:18:24;4.85;;;2.97;;
23578;SDS011;11967;50.852;4.400;2022-11-20T15:20:57;6.35;;;2.88;;
23578;SDS011;11967;50.852;4.400;2022-11-20T15:23:27;7.50;;;3.40;;
23578;SDS011;11967;50.852;4.400;2022-11-20T15:25:53;5.53;;;2.95;;
23578;SDS011;11967;50.852;4.400;2022-11-20T15:28:39;5.75;;;3.50;;
23578;SDS011;11967;50.852;4.400;2022-11-20T15:31:06;5.88;;;3.28;;
23578;SDS011;11967;50.852;4.400;2022-11-20T15:33:36;6.78;;;3.42;;
23578;SDS011;11967;50.852;4.400;2022-11-20T15:36:01;8.40;;;4.15;;
23578;SDS011;11967;50.852;4.400;2022-11-20T15:38:27;7.20;;;3.65;;
23578;SDS011;11967;50.852;4.400;2022-11-20T15:40:53;7.28;;;3.95;;
23578;SDS011;11967;50.852;4.400;2022-11-20T15:43:19;5.60;;;3.33;;
23578;SDS011;11967;50.852;4.400;2022-11-20T15:45:49;6.57;;;3.78;;
23578;SDS011;11967;50.852;4.400;2022-11-20T15:48:16;10.35;;;3.50;;
23578;SDS011;11967;50.852;4.400;2022-11-20T15:53:16;11.43;;;3.92;;
23578;SDS011;11967;50.852;4.400;2022-11-20T15:55:41;8.95;;;4.18;;
23578;SDS011;11967;50.852;4.400;2022-11-20T15:58:07;9.10;;;3.75;;
23578;SDS011;11967;50.852;4.400;2022-11-20T16:00:32;15.38;;;4.00;;
23578;SDS011;11967;50.852;4.400;2022-11-20T16:02:58;9.45;;;3.90;;
23578;SDS011;11967;50.852;4.400;2022-11-20T16:05:25;12.20;;;3.88;;
23578;SDS011;11967;50.852;4.400;2022-11-20T16:07:53;15.57;;;4.35;;
23578;SDS011;11967;50.852;4.400;2022-11-20T16:10:18;12.18;;;3.75;;
23578;SDS011;11967;50.852;4.400;2022-11-20T16:12:44;14.60;;;3.97;;
23578;SDS011;11967;50.852;4.400;2022-11-20T16:15:28;19.52;;;4.20;;
23578;SDS011;11967;50.852;4.400;2022-11-20T16:18:17;14.63;;;3.80;;
23578;SDS011;11967;50.852;4.400;2022-11-20T16:20:53;16.08;;;4.13;;
23578;SDS011;11967;50.852;4.400;2022-11-20T16:23:20;17.00;;;4.95;;
23578;SDS011;11967;50.852;4.400;2022-11-20T16:25:46;16.60;;;4.47;;
23578;SDS011;11967;50.852;4.400;2022-11-20T16:28:12;16.60;;;5.30;;
23578;SDS011;11967;50.852;4.400;2022-11-20T16:30:38;19.88;;;6.13;;
23578;SDS011;11967;50.852;4.400;2022-11-20T16:33:04;17.63;;;5.60;;
23578;SDS011;11967;50.852;4.400;2022-11-20T16:35:34;22.17;;;5.70;;
23578;SDS011;11967;50.852;4.400;2022-11-20T16:37:59;19.00;;;6.05;;
23578;SDS011;11967;50.852;4.400;2022-11-20T16:40:25;20.92;;;6.53;;
23578;SDS011;11967;50.852;4.400;2022-11-20T16:42:51;23.63;;;5.97;;
23578;SDS011;11967;50.852;4.400;2022-11-20T16:45:17;23.48;;;5.75;;
23578;SDS011;11967;50.852;4.400;2022-11-20T16:47:43;22.83;;;5.38;;
23578;SDS011;11967;50.852;4.400;2022-11-20T16:50:08;22.23;;;5.25;;
23578;SDS011;11967;50.852;4.400;2022-11-20T16:52:34;22.88;;;5.10;;
23578;SDS011;11967;50.852;4.400;2022-11-20T16:55:00;19.58;;;4.90;;
23578;SDS011;11967;50.852;4.400;2022-11-20T16:57:27;18.13;;;4.95;;
23578;SDS011;11967;50.852;4.400;2022-11-20T16:59:54;24.00;;;4.85;;
23578;SDS011;11967;50.852;4.400;2022-11-20T17:02:20;25.63;;;5.57;;
23578;SDS011;11967;50.852;4.400;2022-11-20T17:04:45;24.85;;;5.03;;
23578;SDS011;11967;50.852;4.400;2022-11-20T17:07:11;23.80;;;4.95;;
23578;SDS011;11967;50.852;4.400;2022-11-20T17:09:37;36.08;;;6.05;;
23578;SDS011;11967;50.852;4.400;2022-11-20T17:12:03;25.05;;;4.50;;
23578;SDS011;11967;50.852;4.400;2022-11-20T17:14:29;16.83;;;4.97;;
23578;SDS011;11967;50.852;4.400;2022-11-20T17:16:54;20.70;;;5.20;;
23578;SDS011;11967;50.852;4.400;2022-11-20T17:19:20;23.15;;;4.88;;
23578;SDS011;11967;50.852;4.400;2022-11-20T17:21:46;24.75;;;4.90;;
23578;SDS011;11967;50.852;4.400;2022-11-20T17:24:12;26.98;;;4.75;;
23578;SDS011;11967;50.852;4.400;2022-11-20T17:26:40;24.17;;;5.13;;
23578;SDS011;11967;50.852;4.400;2022-11-20T17:29:07;31.27;;;5.90;;
23578;SDS011;11967;50.852;4.400;2022-11-20T17:31:40;26.65;;;5.32;;
23578;SDS011;11967;50.852;4.400;2022-11-20T17:34:10;25.40;;;6.18;;
23578;SDS011;11967;50.852;4.400;2022-11-20T17:36:36;28.80;;;6.63;;
23578;SDS011;11967;50.852;4.400;2022-11-20T17:39:08;26.35;;;5.80;;
23578;SDS011;11967;50.852;4.400;2022-11-20T17:41:38;17.98;;;5.22;;
23578;SDS011;11967;50.852;4.400;2022-11-20T17:44:04;17.27;;;4.22;;
23578;SDS011;11967;50.852;4.400;2022-11-20T17:46:30;14.02;;;3.70;;
23578;SDS011;11967;50.852;4.400;2022-11-20T17:48:57;11.70;;;3.70;;
23578;SDS011;11967;50.852;4.400;2022-11-20T17:51:23;18.52;;;4.80;;
23578;SDS011;11967;50.852;4.400;2022-11-20T17:53:52;13.25;;;4.25;;
23578;SDS011;11967;50.852;4.400;2022-11-20T17:56:22;12.38;;;4.10;;
23578;SDS011;11967;50.852;4.400;2022-11-20T17:59:07;10.77;;;3.13;;
23578;SDS011;11967;50.852;4.400;2022-11-20T18:01:34;10.50;;;2.50;;
23578;SDS011;11967;50.852;4.400;2022-11-20T18:04:00;9.68;;;2.88;;
23578;SDS011;11967;50.852;4.400;2022-11-20T18:06:27;9.80;;;2.78;;
23578;SDS011;11967;50.852;4.400;2022-11-20T18:08:53;13.15;;;2.80;;
23578;SDS011;11967;50.852;4.400;2022-11-20T18:11:22;17.75;;;3.67;;
23578;SDS011;11967;50.852;4.400;2022-11-20T18:13:54;11.45;;;3.05;;
23578;SDS011;11967;50.852;4.400;2022-11-20T18:16:45;11.52;;;3.28;;
23578;SDS011;11967;50.852;4.400;2022-11-20T18:19:13;12.35;;;4.25;;
23578;SDS011;11967;50.852;4.400;2022-11-20T18:21:40;14.40;;;4.72;;
23578;SDS011;11967;50.852;4.400;2022-11-20T18:24:06;21.83;;;4.97;;
23578;SDS011;11967;50.852;4.400;2022-11-20T18:26:32;22.60;;;6.00;;
23578;SDS011;11967;50.852;4.400;2022-11-20T18:28:58;28.27;;;7.30;;
23578;SDS011;11967;50.852;4.400;2022-11-20T18:31:24;27.38;;;7.43;;
23578;SDS011;11967;50.852;4.400;2022-11-20T18:33:50;24.60;;;7.15;;
23578;SDS011;11967;50.852;4.400;2022-11-20T18:36:20;19.45;;;6.82;;
23578;SDS011;11967;50.852;4.400;2022-11-20T18:38:48;26.35;;;7.35;;
23578;SDS011;11967;50.852;4.400;2022-11-20T18:41:16;21.17;;;6.00;;
23578;SDS011;11967;50.852;4.400;2022-11-20T18:44:03;27.60;;;6.70;;
23578;SDS011;11967;50.852;4.400;2022-11-20T18:46:49;24.77;;;6.28;;
23578;SDS011;11967;50.852;4.400;2022-11-20T18:49:15;27.02;;;5.68;;
23578;SDS011;11967;50.852;4.400;2022-11-20T18:51:41;29.17;;;6.00;;
23578;SDS011;11967;50.852;4.400;2022-11-20T18:54:08;27.80;;;5.95;;
23578;SDS011;11967;50.852;4.400;2022-11-20T18:56:34;22.58;;;6.18;;
23578;SDS011;11967;50.852;4.400;2022-11-20T18:59:00;22.48;;;6.55;;
23578;SDS011;11967;50.852;4.400;2022-11-20T19:01:26;21.90;;;6.20;;
23578;SDS011;11967;50.852;4.400;2022-11-20T19:03:52;29.63;;;6.55;;
23578;SDS011;11967;50.852;4.400;2022-11-20T19:06:18;26.58;;;6.68;;
23578;SDS011;11967;50.852;4.400;2022-11-20T19:08:44;32.30;;;7.10;;
23578;SDS011;11967;50.852;4.400;2022-11-20T19:11:10;27.90;;;6.35;;
23578;SDS011;11967;50.852;4.400;2022-11-20T19:13:36;24.73;;;6.03;;
23578;SDS011;11967;50.852;4.400;2022-11-20T19:16:03;33.40;;;6.38;;
23578;SDS011;11967;50.852;4.400;2022-11-20T19:18:39;26.67;;;6.60;;
23578;SDS011;11967;50.852;4.400;2022-11-20T19:21:06;23.42;;;6.65;;
23578;SDS011;11967;50.852;4.400;2022-11-20T19:23:33;25.15;;;6.22;;
23578;SDS011;11967;50.852;4.400;2022-11-20T19:25:58;27.10;;;7.03;;
23578;SDS011;11967;50.852;4.400;2022-11-20T19:28:25;26.08;;;6.32;;
23578;SDS011;11967;50.852;4.400;2022-11-20T19:30:51;25.65;;;5.88;;
23578;SDS011;11967;50.852;4.400;2022-11-20T19:33:20;22.70;;;5.35;;
23578;SDS011;11967;50.852;4.400;2022-11-20T19:35:48;22.40;;;6.35;;
23578;SDS011;11967;50.852;4.400;2022-11-20T19:38:14;20.92;;;5.63;;